West Miami, Florida
Current Conditions -  °F | °C
As of 9:53 PM on Friday 21 Nov 2014 (Local Time) from KMIA Reporting Station
Light Rain Light Rain  
Wind Chill: 23°   Ceiling: 2500
Heat Index: 23°   Visibility: 10mi
Dew Point: 19°   Wind: 9mph
Humidity: 81%   Direction: 50°NE
Pressure: 30.18"   Gusts: NA
Location:  25.7365°N, 80.3112°W
Report Text: KMIA 220253Z 05008KT 10SM -RA SCT019 BKN025 OVC040 23/19 A3018 RMK AO2 RAB16 SLP218 P0000 60001 T02280194 51008
Loading
Personal Weather Stations






























Interactive Weather Map New forecast layout! Learn more

10-Day Weather Forecast

Advertisements
Track Severe Weather on mobile